SBGRSBCG

Guest
Details From SBGR - Sao Paulo - Guarulhos
To SBCG - Campo Grande
Flight Number -
Tags decoded
Created
Modified
Stats Distance 490 nm / 908 km
Max Altitude 0 ft / 0 m
Waypoints 2
Social Downloads 0
Likes 0
Share VATSIM

Download

Looking for another format? Having issues loading an existing format? Contact us
Advertisement - Login to hide

Notes

Requested: SBGR SBCG

Route

SBGR SBCG

ID Type Via Altitude Latitude Longitude Leg Dist Tot Dist Heading (true) Name
O SBGR APT - 0 ft / 0 m -23.43233˚ -46.46968˚ - 0 nm - Sao Paulo - Guarulhos
O SBCG APT - 0 ft / 0 m -20.46867˚ -54.67250˚ 490 nm 490 nm 290° / 293° Campo Grande

Altitude Profile

Advertisement - Login to hide

Weather


0- 5 10 15 20 25 30 35+ Temperature / ° C

Clouds and Precipitation
Forecast for 2017-12-13 00:00 UTC. Updated an hour ago

Ground ~20,000 ft ~40,000 ft Winds

SBGR

Details ICAO SBGR (GRU)
Name Sao Paulo - Guarulhos
Region Brazil
Timezone America/Sao_Paulo (UTC-2.0)
Stats Elevation 2,459 ft / 750 m (AMSL)
Location -23.432333° -46.469675°
Runways 2
Magnetic Variation 21.413° W

METAR

SBGR 130000Z 12008KT 9999 OVC011 18/16 Q1020

Decode

TAF

TAF SBGR 121600Z 1218/1324 13008KT 9999 BKN015TN16/1308Z TX28/1317Z PROB30 1218/1221 4000 DZ BR BKN011 BECMG 1221/1223 12005KT BKN011 BECMG 1300/1302 07007KT PROB30 1307/1311 5000 BR BKN006 BECMG 1311/1313 SCT012 BECMG 1313/1315 15005KT FEW040 PROB30 1316/1318 17008KT BKN040 BECMG 1319/1321 CAVOK BECMG 1321/1323 12004KT RMK PGE

Decode

Departure Runways

ID Width Length Bearing (true) Bearing (mag) Surface Threshold Offset Overrun Length
09L 148 ft / 45 m 12,676 ft / 3,864 m 73.61° 95.02° Asphalt 495 ft / 151 m 0 ft / 0 m
09R 148 ft / 45 m 9,950 ft / 3,033 m 73.60° 95.01° Asphalt 0 ft / 0 m 197 ft / 60 m
27L 148 ft / 45 m 9,950 ft / 3,033 m 253.59° 275.00° Asphalt 0 ft / 0 m 197 ft / 60 m
27R 148 ft / 45 m 12,676 ft / 3,864 m 253.60° 275.01° Asphalt 197 ft / 60 m 0 ft / 0 m

SBCG

Details ICAO SBCG (CGR)
Name Campo Grande
Region Brazil
Timezone America/Campo_Grande (UTC-3.0)
Stats Elevation 1,833 ft / 559 m (AMSL)
Location -20.468666° -54.672500°
Runways 1
Magnetic Variation 17.530° W

METAR

SBCG 130000Z 23003KT CAVOK 25/18 Q1012

Decode

TAF

TAF SBCG 121400Z 1218/1318 11008KT CAVOK TX32/1218Z TN22/1309Z BECMG 1306/1310 07010KT RMK PEB

Decode

Destination Runways

ID Width Length Bearing (true) Bearing (mag) Surface Threshold Offset Overrun Length
06 141 ft / 43 m 8,563 ft / 2,610 m 40.84° 58.37° Asphalt 0 ft / 0 m 192 ft / 59 m
24 141 ft / 43 m 8,563 ft / 2,610 m 220.83° 238.36° Asphalt 0 ft / 0 m 190 ft / 58 m

Approach Navaids

Runway Type Ident Frequency Range Bearing (true) Bearing (mag) Slope Elevation
06 Localiser ICG 110.30 MHz 18 nm / 33 km 41.62° 59.15° - 1,833 ft / 559 m (AMSL)
06 Glidescope ICG 110.30 MHz 10 nm / 19 km 40.84° 58.37° 3.00° 1,833 ft / 559 m (AMSL)

Popular Alternatives